sensor_id;sensor_type;location;lat;lon;timestamp;P1;durP1;ratioP1;P2;durP2;ratioP2
39102;SDS011;24847;48.218;16.414;2022-12-18T00:03:24;6.10;;;4.15;;
39102;SDS011;24847;48.218;16.414;2022-12-18T00:08:27;5.97;;;4.40;;
39102;SDS011;24847;48.218;16.414;2022-12-18T00:13:31;5.68;;;4.20;;
39102;SDS011;24847;48.218;16.414;2022-12-18T00:18:38;7.20;;;5.10;;
39102;SDS011;24847;48.218;16.414;2022-12-18T00:23:42;6.45;;;4.63;;
39102;SDS011;24847;48.218;16.414;2022-12-18T00:28:47;6.22;;;4.55;;
39102;SDS011;24847;48.218;16.414;2022-12-18T00:33:50;7.55;;;4.55;;
39102;SDS011;24847;48.218;16.414;2022-12-18T00:38:53;6.70;;;5.05;;
39102;SDS011;24847;48.218;16.414;2022-12-18T00:43:57;6.38;;;4.43;;
39102;SDS011;24847;48.218;16.414;2022-12-18T00:49:00;7.20;;;4.90;;
39102;SDS011;24847;48.218;16.414;2022-12-18T00:54:02;8.40;;;5.10;;
39102;SDS011;24847;48.218;16.414;2022-12-18T00:59:07;7.07;;;4.82;;
39102;SDS011;24847;48.218;16.414;2022-12-18T01:04:09;7.40;;;5.25;;
39102;SDS011;24847;48.218;16.414;2022-12-18T01:09:18;8.90;;;5.88;;
39102;SDS011;24847;48.218;16.414;2022-12-18T01:14:21;9.23;;;6.45;;
39102;SDS011;24847;48.218;16.414;2022-12-18T01:19:24;11.25;;;7.00;;
39102;SDS011;24847;48.218;16.414;2022-12-18T01:24:26;9.57;;;6.20;;
39102;SDS011;24847;48.218;16.414;2022-12-18T01:29:30;10.05;;;6.70;;
39102;SDS011;24847;48.218;16.414;2022-12-18T01:34:32;11.30;;;7.30;;
39102;SDS011;24847;48.218;16.414;2022-12-18T01:39:34;10.35;;;7.10;;
39102;SDS011;24847;48.218;16.414;2022-12-18T01:50:29;13.15;;;8.48;;
39102;SDS011;24847;48.218;16.414;2022-12-18T01:55:36;11.85;;;7.57;;
39102;SDS011;24847;48.218;16.414;2022-12-18T02:00:44;13.65;;;8.15;;
39102;SDS011;24847;48.218;16.414;2022-12-18T02:05:48;13.57;;;7.90;;
39102;SDS011;24847;48.218;16.414;2022-12-18T02:11:00;13.23;;;8.38;;
39102;SDS011;24847;48.218;16.414;2022-12-18T02:16:12;12.57;;;7.95;;
39102;SDS011;24847;48.218;16.414;2022-12-18T02:21:25;13.70;;;8.73;;
39102;SDS011;24847;48.218;16.414;2022-12-18T02:26:40;13.43;;;8.43;;
39102;SDS011;24847;48.218;16.414;2022-12-18T02:31:49;13.55;;;8.88;;
39102;SDS011;24847;48.218;16.414;2022-12-18T02:36:57;13.07;;;8.75;;
39102;SDS011;24847;48.218;16.414;2022-12-18T02:42:04;14.63;;;8.95;;
39102;SDS011;24847;48.218;16.414;2022-12-18T02:47:08;13.60;;;8.65;;
39102;SDS011;24847;48.218;16.414;2022-12-18T02:52:16;12.90;;;7.93;;
39102;SDS011;24847;48.218;16.414;2022-12-18T02:57:31;15.10;;;9.23;;
39102;SDS011;24847;48.218;16.414;2022-12-18T03:02:39;13.10;;;8.38;;
39102;SDS011;24847;48.218;16.414;2022-12-18T03:07:50;13.23;;;9.05;;
39102;SDS011;24847;48.218;16.414;2022-12-18T03:13:02;12.52;;;9.00;;
39102;SDS011;24847;48.218;16.414;2022-12-18T03:18:08;14.20;;;8.73;;
39102;SDS011;24847;48.218;16.414;2022-12-18T03:23:16;14.05;;;9.18;;
39102;SDS011;24847;48.218;16.414;2022-12-18T03:28:24;13.50;;;8.60;;
39102;SDS011;24847;48.218;16.414;2022-12-18T03:33:30;12.75;;;8.15;;
39102;SDS011;24847;48.218;16.414;2022-12-18T03:43:45;12.15;;;7.85;;
39102;SDS011;24847;48.218;16.414;2022-12-18T03:48:55;14.68;;;8.55;;
39102;SDS011;24847;48.218;16.414;2022-12-18T03:54:05;14.60;;;8.82;;
39102;SDS011;24847;48.218;16.414;2022-12-18T03:59:11;16.98;;;9.23;;
39102;SDS011;24847;48.218;16.414;2022-12-18T04:04:16;14.35;;;9.07;;
39102;SDS011;24847;48.218;16.414;2022-12-18T04:09:20;14.23;;;9.07;;
39102;SDS011;24847;48.218;16.414;2022-12-18T04:14:24;18.52;;;10.32;;
39102;SDS011;24847;48.218;16.414;2022-12-18T04:19:26;15.68;;;9.93;;
39102;SDS011;24847;48.218;16.414;2022-12-18T04:24:28;16.85;;;9.25;;
39102;SDS011;24847;48.218;16.414;2022-12-18T04:29:32;16.35;;;10.65;;
39102;SDS011;24847;48.218;16.414;2022-12-18T04:34:34;15.60;;;9.77;;
39102;SDS011;24847;48.218;16.414;2022-12-18T04:39:36;16.23;;;10.00;;
39102;SDS011;24847;48.218;16.414;2022-12-18T04:44:40;15.90;;;10.32;;
39102;SDS011;24847;48.218;16.414;2022-12-18T04:49:42;16.67;;;9.80;;
39102;SDS011;24847;48.218;16.414;2022-12-18T04:54:44;15.43;;;10.45;;
39102;SDS011;24847;48.218;16.414;2022-12-18T04:59:47;17.52;;;10.65;;
39102;SDS011;24847;48.218;16.414;2022-12-18T05:04:50;18.40;;;10.95;;
39102;SDS011;24847;48.218;16.414;2022-12-18T05:09:52;17.08;;;10.63;;
39102;SDS011;24847;48.218;16.414;2022-12-18T05:14:56;17.13;;;11.18;;
39102;SDS011;24847;48.218;16.414;2022-12-18T05:19:58;18.92;;;11.10;;
39102;SDS011;24847;48.218;16.414;2022-12-18T05:25:00;17.02;;;10.82;;
39102;SDS011;24847;48.218;16.414;2022-12-18T05:30:04;17.83;;;11.18;;
39102;SDS011;24847;48.218;16.414;2022-12-18T05:35:08;17.45;;;10.50;;
39102;SDS011;24847;48.218;16.414;2022-12-18T05:40:12;17.42;;;11.20;;
39102;SDS011;24847;48.218;16.414;2022-12-18T05:45:16;18.30;;;10.93;;
39102;SDS011;24847;48.218;16.414;2022-12-18T05:50:19;18.85;;;11.50;;
39102;SDS011;24847;48.218;16.414;2022-12-18T05:55:22;19.75;;;11.80;;
39102;SDS011;24847;48.218;16.414;2022-12-18T06:00:25;16.65;;;10.73;;
39102;SDS011;24847;48.218;16.414;2022-12-18T06:05:28;19.40;;;11.52;;
39102;SDS011;24847;48.218;16.414;2022-12-18T06:10:30;17.08;;;10.55;;
39102;SDS011;24847;48.218;16.414;2022-12-18T06:15:35;18.20;;;11.23;;
39102;SDS011;24847;48.218;16.414;2022-12-18T06:20:39;18.15;;;11.45;;
39102;SDS011;24847;48.218;16.414;2022-12-18T06:25:41;18.92;;;10.68;;
39102;SDS011;24847;48.218;16.414;2022-12-18T06:30:45;18.77;;;11.35;;
39102;SDS011;24847;48.218;16.414;2022-12-18T06:35:48;17.73;;;10.77;;
39102;SDS011;24847;48.218;16.414;2022-12-18T06:40:50;17.52;;;10.55;;
39102;SDS011;24847;48.218;16.414;2022-12-18T06:45:59;18.67;;;10.98;;
39102;SDS011;24847;48.218;16.414;2022-12-18T06:51:02;16.58;;;10.50;;
39102;SDS011;24847;48.218;16.414;2022-12-18T06:56:06;17.88;;;10.52;;
39102;SDS011;24847;48.218;16.414;2022-12-18T07:01:10;16.90;;;10.55;;
39102;SDS011;24847;48.218;16.414;2022-12-18T07:06:15;18.55;;;11.32;;
39102;SDS011;24847;48.218;16.414;2022-12-18T07:11:19;18.95;;;11.10;;
39102;SDS011;24847;48.218;16.414;2022-12-18T07:16:23;15.68;;;9.88;;
39102;SDS011;24847;48.218;16.414;2022-12-18T07:21:25;17.58;;;9.68;;
39102;SDS011;24847;48.218;16.414;2022-12-18T07:26:27;15.52;;;9.93;;
39102;SDS011;24847;48.218;16.414;2022-12-18T07:31:37;17.25;;;9.65;;
39102;SDS011;24847;48.218;16.414;2022-12-18T07:36:41;14.48;;;9.75;;
39102;SDS011;24847;48.218;16.414;2022-12-18T07:41:44;16.75;;;10.25;;
39102;SDS011;24847;48.218;16.414;2022-12-18T07:47:09;17.17;;;9.85;;
39102;SDS011;24847;48.218;16.414;2022-12-18T07:52:11;16.33;;;9.73;;
39102;SDS011;24847;48.218;16.414;2022-12-18T07:57:13;16.17;;;10.20;;
39102;SDS011;24847;48.218;16.414;2022-12-18T08:02:17;17.95;;;10.90;;
39102;SDS011;24847;48.218;16.414;2022-12-18T08:07:19;17.77;;;11.27;;
39102;SDS011;24847;48.218;16.414;2022-12-18T08:12:21;19.20;;;11.32;;
39102;SDS011;24847;48.218;16.414;2022-12-18T08:17:25;18.90;;;11.25;;
39102;SDS011;24847;48.218;16.414;2022-12-18T08:22:27;20.13;;;11.55;;
39102;SDS011;24847;48.218;16.414;2022-12-18T08:27:30;28.17;;;15.48;;
39102;SDS011;24847;48.218;16.414;2022-12-18T08:32:36;20.20;;;12.73;;
39102;SDS011;24847;48.218;16.414;2022-12-18T08:37:39;21.17;;;12.32;;
39102;SDS011;24847;48.218;16.414;2022-12-18T08:42:41;21.00;;;12.73;;
39102;SDS011;24847;48.218;16.414;2022-12-18T08:48:02;20.38;;;13.50;;
39102;SDS011;24847;48.218;16.414;2022-12-18T08:53:04;23.08;;;14.27;;
39102;SDS011;24847;48.218;16.414;2022-12-18T08:58:07;28.27;;;16.63;;
39102;SDS011;24847;48.218;16.414;2022-12-18T09:03:11;24.27;;;13.68;;
39102;SDS011;24847;48.218;16.414;2022-12-18T09:08:14;22.73;;;13.55;;
39102;SDS011;24847;48.218;16.414;2022-12-18T09:13:16;23.50;;;13.82;;
39102;SDS011;24847;48.218;16.414;2022-12-18T09:18:21;23.88;;;14.50;;
39102;SDS011;24847;48.218;16.414;2022-12-18T09:23:24;22.95;;;13.15;;
39102;SDS011;24847;48.218;16.414;2022-12-18T09:28:26;24.25;;;14.40;;
39102;SDS011;24847;48.218;16.414;2022-12-18T09:33:30;21.52;;;13.25;;
39102;SDS011;24847;48.218;16.414;2022-12-18T09:38:32;26.77;;;15.48;;
39102;SDS011;24847;48.218;16.414;2022-12-18T09:43:37;24.75;;;14.43;;
39102;SDS011;24847;48.218;16.414;2022-12-18T09:48:47;25.55;;;14.13;;
39102;SDS011;24847;48.218;16.414;2022-12-18T09:53:58;23.00;;;13.15;;
39102;SDS011;24847;48.218;16.414;2022-12-18T09:59:04;23.48;;;12.98;;
39102;SDS011;24847;48.218;16.414;2022-12-18T10:04:08;22.25;;;12.98;;
39102;SDS011;24847;48.218;16.414;2022-12-18T10:09:14;21.70;;;12.73;;
39102;SDS011;24847;48.218;16.414;2022-12-18T10:14:30;20.60;;;12.27;;
39102;SDS011;24847;48.218;16.414;2022-12-18T10:19:43;21.52;;;11.95;;
39102;SDS011;24847;48.218;16.414;2022-12-18T10:24:53;24.08;;;12.63;;
39102;SDS011;24847;48.218;16.414;2022-12-18T10:30:04;21.42;;;12.23;;
39102;SDS011;24847;48.218;16.414;2022-12-18T10:35:17;22.10;;;12.40;;
39102;SDS011;24847;48.218;16.414;2022-12-18T10:40:23;21.70;;;12.90;;
39102;SDS011;24847;48.218;16.414;2022-12-18T10:45:25;24.20;;;12.75;;
39102;SDS011;24847;48.218;16.414;2022-12-18T10:50:30;25.48;;;13.52;;
39102;SDS011;24847;48.218;16.414;2022-12-18T10:55:38;26.70;;;13.95;;
39102;SDS011;24847;48.218;16.414;2022-12-18T11:00:45;22.67;;;13.65;;
39102;SDS011;24847;48.218;16.414;2022-12-18T11:06:11;20.58;;;12.10;;
39102;SDS011;24847;48.218;16.414;2022-12-18T11:11:17;22.73;;;12.77;;
39102;SDS011;24847;48.218;16.414;2022-12-18T11:16:22;23.05;;;12.52;;
39102;SDS011;24847;48.218;16.414;2022-12-18T11:21:26;24.15;;;13.65;;
39102;SDS011;24847;48.218;16.414;2022-12-18T11:26:33;23.08;;;13.90;;
39102;SDS011;24847;48.218;16.414;2022-12-18T11:31:38;19.42;;;11.57;;
39102;SDS011;24847;48.218;16.414;2022-12-18T11:36:42;25.42;;;13.98;;
39102;SDS011;24847;48.218;16.414;2022-12-18T11:41:50;23.10;;;13.82;;
39102;SDS011;24847;48.218;16.414;2022-12-18T11:47:15;21.42;;;12.30;;
39102;SDS011;24847;48.218;16.414;2022-12-18T11:52:30;23.23;;;13.18;;
39102;SDS011;24847;48.218;16.414;2022-12-18T11:57:39;23.05;;;12.93;;
39102;SDS011;24847;48.218;16.414;2022-12-18T12:03:02;22.65;;;13.25;;
39102;SDS011;24847;48.218;16.414;2022-12-18T12:08:22;24.02;;;14.30;;
39102;SDS011;24847;48.218;16.414;2022-12-18T12:13:41;22.75;;;12.73;;
39102;SDS011;24847;48.218;16.414;2022-12-18T12:19:01;24.77;;;12.98;;
39102;SDS011;24847;48.218;16.414;2022-12-18T12:24:30;21.13;;;12.50;;
39102;SDS011;24847;48.218;16.414;2022-12-18T12:29:47;22.40;;;12.63;;
39102;SDS011;24847;48.218;16.414;2022-12-18T12:35:04;22.95;;;13.75;;
39102;SDS011;24847;48.218;16.414;2022-12-18T12:40:22;20.77;;;12.35;;
39102;SDS011;24847;48.218;16.414;2022-12-18T12:45:30;25.55;;;13.55;;
39102;SDS011;24847;48.218;16.414;2022-12-18T12:50:39;25.10;;;14.30;;
39102;SDS011;24847;48.218;16.414;2022-12-18T12:55:48;25.40;;;13.82;;
39102;SDS011;24847;48.218;16.414;2022-12-18T13:00:55;22.67;;;13.48;;
39102;SDS011;24847;48.218;16.414;2022-12-18T13:06:16;24.25;;;12.98;;
39102;SDS011;24847;48.218;16.414;2022-12-18T13:11:35;24.80;;;13.35;;
39102;SDS011;24847;48.218;16.414;2022-12-18T13:22:34;23.85;;;12.32;;
39102;SDS011;24847;48.218;16.414;2022-12-18T13:44:31;26.33;;;14.18;;
39102;SDS011;24847;48.218;16.414;2022-12-18T13:49:36;26.15;;;14.60;;
39102;SDS011;24847;48.218;16.414;2022-12-18T13:54:40;25.40;;;14.25;;
39102;SDS011;24847;48.218;16.414;2022-12-18T13:59:45;30.27;;;15.63;;
39102;SDS011;24847;48.218;16.414;2022-12-18T14:04:52;28.20;;;16.00;;
39102;SDS011;24847;48.218;16.414;2022-12-18T14:15:30;29.85;;;15.32;;
39102;SDS011;24847;48.218;16.414;2022-12-18T14:20:34;28.27;;;15.18;;
39102;SDS011;24847;48.218;16.414;2022-12-18T14:25:37;30.55;;;16.05;;
39102;SDS011;24847;48.218;16.414;2022-12-18T14:30:43;31.88;;;15.68;;
39102;SDS011;24847;48.218;16.414;2022-12-18T14:35:52;27.75;;;14.63;;
39102;SDS011;24847;48.218;16.414;2022-12-18T14:40:58;29.70;;;14.88;;
39102;SDS011;24847;48.218;16.414;2022-12-18T14:46:06;31.60;;;15.60;;
39102;SDS011;24847;48.218;16.414;2022-12-18T14:51:30;30.38;;;16.45;;
39102;SDS011;24847;48.218;16.414;2022-12-18T14:56:35;36.17;;;17.27;;
39102;SDS011;24847;48.218;16.414;2022-12-18T15:01:46;37.28;;;19.15;;
39102;SDS011;24847;48.218;16.414;2022-12-18T15:07:04;29.98;;;15.82;;
39102;SDS011;24847;48.218;16.414;2022-12-18T15:12:19;30.35;;;15.05;;
39102;SDS011;24847;48.218;16.414;2022-12-18T15:17:33;31.15;;;14.40;;
39102;SDS011;24847;48.218;16.414;2022-12-18T15:22:43;29.65;;;15.02;;
39102;SDS011;24847;48.218;16.414;2022-12-18T15:27:53;27.45;;;14.55;;
39102;SDS011;24847;48.218;16.414;2022-12-18T15:38:26;27.50;;;14.50;;
39102;SDS011;24847;48.218;16.414;2022-12-18T15:43:30;28.27;;;15.00;;
39102;SDS011;24847;48.218;16.414;2022-12-18T15:48:38;28.20;;;14.82;;
39102;SDS011;24847;48.218;16.414;2022-12-18T15:53:51;27.80;;;14.52;;
39102;SDS011;24847;48.218;16.414;2022-12-18T15:58:58;29.57;;;15.50;;
39102;SDS011;24847;48.218;16.414;2022-12-18T16:04:05;30.75;;;15.63;;
39102;SDS011;24847;48.218;16.414;2022-12-18T16:09:08;31.20;;;16.95;;
39102;SDS011;24847;48.218;16.414;2022-12-18T16:14:18;33.58;;;16.85;;
39102;SDS011;24847;48.218;16.414;2022-12-18T16:19:26;32.35;;;16.58;;
39102;SDS011;24847;48.218;16.414;2022-12-18T16:24:34;32.95;;;17.52;;
39102;SDS011;24847;48.218;16.414;2022-12-18T16:29:38;32.13;;;16.75;;
39102;SDS011;24847;48.218;16.414;2022-12-18T16:34:47;29.45;;;16.40;;
39102;SDS011;24847;48.218;16.414;2022-12-18T16:39:51;30.98;;;17.40;;
39102;SDS011;24847;48.218;16.414;2022-12-18T16:44:56;29.38;;;16.48;;
39102;SDS011;24847;48.218;16.414;2022-12-18T16:50:02;27.80;;;16.00;;
39102;SDS011;24847;48.218;16.414;2022-12-18T16:55:07;32.03;;;16.88;;
39102;SDS011;24847;48.218;16.414;2022-12-18T17:00:27;25.98;;;15.23;;
39102;SDS011;24847;48.218;16.414;2022-12-18T17:05:34;27.15;;;15.25;;
39102;SDS011;24847;48.218;16.414;2022-12-18T17:10:38;26.42;;;15.63;;
39102;SDS011;24847;48.218;16.414;2022-12-18T17:15:41;26.92;;;14.90;;
39102;SDS011;24847;48.218;16.414;2022-12-18T17:20:47;25.92;;;15.50;;
39102;SDS011;24847;48.218;16.414;2022-12-18T17:25:56;24.90;;;14.43;;
39102;SDS011;24847;48.218;16.414;2022-12-18T17:31:09;27.73;;;15.25;;
39102;SDS011;24847;48.218;16.414;2022-12-18T17:36:15;27.92;;;15.23;;
39102;SDS011;24847;48.218;16.414;2022-12-18T17:41:18;30.30;;;16.23;;
39102;SDS011;24847;48.218;16.414;2022-12-18T17:46:48;26.88;;;14.82;;
39102;SDS011;24847;48.218;16.414;2022-12-18T17:52:19;28.10;;;16.30;;
39102;SDS011;24847;48.218;16.414;2022-12-18T17:57:24;27.10;;;15.75;;
39102;SDS011;24847;48.218;16.414;2022-12-18T18:02:27;30.92;;;16.30;;
39102;SDS011;24847;48.218;16.414;2022-12-18T18:07:37;30.58;;;15.70;;
39102;SDS011;24847;48.218;16.414;2022-12-18T18:12:49;31.05;;;16.75;;
39102;SDS011;24847;48.218;16.414;2022-12-18T18:18:10;28.38;;;16.10;;
39102;SDS011;24847;48.218;16.414;2022-12-18T18:23:15;29.85;;;16.45;;
39102;SDS011;24847;48.218;16.414;2022-12-18T18:28:28;28.13;;;16.48;;
39102;SDS011;24847;48.218;16.414;2022-12-18T18:33:50;28.17;;;15.93;;
39102;SDS011;24847;48.218;16.414;2022-12-18T18:39:05;28.98;;;15.82;;
39102;SDS011;24847;48.218;16.414;2022-12-18T18:44:09;26.80;;;15.43;;
39102;SDS011;24847;48.218;16.414;2022-12-18T18:49:13;28.75;;;16.13;;
39102;SDS011;24847;48.218;16.414;2022-12-18T18:54:19;26.17;;;15.57;;
39102;SDS011;24847;48.218;16.414;2022-12-18T18:59:24;26.17;;;14.98;;
39102;SDS011;24847;48.218;16.414;2022-12-18T19:04:28;26.95;;;14.80;;
39102;SDS011;24847;48.218;16.414;2022-12-18T19:09:35;25.10;;;13.98;;
39102;SDS011;24847;48.218;16.414;2022-12-18T19:14:56;23.17;;;13.80;;
39102;SDS011;24847;48.218;16.414;2022-12-18T19:20:06;22.00;;;12.23;;
39102;SDS011;24847;48.218;16.414;2022-12-18T19:25:16;21.45;;;13.18;;
39102;SDS011;24847;48.218;16.414;2022-12-18T19:30:30;20.40;;;12.27;;
39102;SDS011;24847;48.218;16.414;2022-12-18T19:35:41;20.35;;;12.07;;
39102;SDS011;24847;48.218;16.414;2022-12-18T19:40:53;23.23;;;13.60;;
39102;SDS011;24847;48.218;16.414;2022-12-18T19:45:56;23.55;;;13.80;;
39102;SDS011;24847;48.218;16.414;2022-12-18T19:51:02;23.10;;;13.70;;
39102;SDS011;24847;48.218;16.414;2022-12-18T19:56:10;22.33;;;14.18;;
39102;SDS011;24847;48.218;16.414;2022-12-18T20:01:21;22.63;;;14.15;;
39102;SDS011;24847;48.218;16.414;2022-12-18T20:06:27;21.92;;;13.23;;
39102;SDS011;24847;48.218;16.414;2022-12-18T20:11:35;23.58;;;13.27;;
39102;SDS011;24847;48.218;16.414;2022-12-18T20:16:38;26.98;;;14.90;;
39102;SDS011;24847;48.218;16.414;2022-12-18T20:21:43;25.60;;;14.82;;
39102;SDS011;24847;48.218;16.414;2022-12-18T20:26:48;22.52;;;13.90;;
39102;SDS011;24847;48.218;16.414;2022-12-18T20:31:51;22.02;;;13.82;;
39102;SDS011;24847;48.218;16.414;2022-12-18T20:36:58;28.98;;;16.80;;
39102;SDS011;24847;48.218;16.414;2022-12-18T20:42:03;22.08;;;13.40;;
39102;SDS011;24847;48.218;16.414;2022-12-18T20:47:06;26.77;;;15.80;;
39102;SDS011;24847;48.218;16.414;2022-12-18T20:52:09;27.23;;;15.32;;
39102;SDS011;24847;48.218;16.414;2022-12-18T20:57:14;27.65;;;16.50;;
39102;SDS011;24847;48.218;16.414;2022-12-18T21:02:17;26.90;;;16.48;;
39102;SDS011;24847;48.218;16.414;2022-12-18T21:07:20;25.92;;;16.40;;
39102;SDS011;24847;48.218;16.414;2022-12-18T21:12:24;24.80;;;15.52;;
39102;SDS011;24847;48.218;16.414;2022-12-18T21:17:33;25.15;;;15.13;;
39102;SDS011;24847;48.218;16.414;2022-12-18T21:22:36;26.73;;;16.52;;
39102;SDS011;24847;48.218;16.414;2022-12-18T21:27:40;29.33;;;18.10;;
39102;SDS011;24847;48.218;16.414;2022-12-18T21:32:44;30.10;;;19.20;;
39102;SDS011;24847;48.218;16.414;2022-12-18T21:37:46;30.13;;;17.63;;
39102;SDS011;24847;48.218;16.414;2022-12-18T21:42:52;30.63;;;18.02;;
39102;SDS011;24847;48.218;16.414;2022-12-18T21:48:14;28.38;;;17.35;;
39102;SDS011;24847;48.218;16.414;2022-12-18T21:53:16;28.50;;;17.45;;
39102;SDS011;24847;48.218;16.414;2022-12-18T21:58:20;27.92;;;17.13;;
39102;SDS011;24847;48.218;16.414;2022-12-18T22:03:22;28.17;;;17.25;;
39102;SDS011;24847;48.218;16.414;2022-12-18T22:08:28;29.58;;;18.30;;
39102;SDS011;24847;48.218;16.414;2022-12-18T22:13:31;30.23;;;17.52;;
39102;SDS011;24847;48.218;16.414;2022-12-18T22:18:34;26.90;;;16.38;;
39102;SDS011;24847;48.218;16.414;2022-12-18T22:23:36;28.40;;;16.38;;
39102;SDS011;24847;48.218;16.414;2022-12-18T22:28:39;23.17;;;14.93;;
39102;SDS011;24847;48.218;16.414;2022-12-18T22:34:00;26.75;;;15.98;;
39102;SDS011;24847;48.218;16.414;2022-12-18T22:39:03;27.92;;;17.15;;
39102;SDS011;24847;48.218;16.414;2022-12-18T22:44:13;27.45;;;16.50;;
39102;SDS011;24847;48.218;16.414;2022-12-18T22:49:16;25.98;;;15.50;;
39102;SDS011;24847;48.218;16.414;2022-12-18T22:54:20;29.55;;;18.90;;
39102;SDS011;24847;48.218;16.414;2022-12-18T22:59:30;29.30;;;18.00;;
39102;SDS011;24847;48.218;16.414;2022-12-18T23:04:32;29.73;;;17.60;;
39102;SDS011;24847;48.218;16.414;2022-12-18T23:09:35;25.20;;;16.40;;
39102;SDS011;24847;48.218;16.414;2022-12-18T23:14:39;27.02;;;16.92;;
39102;SDS011;24847;48.218;16.414;2022-12-18T23:19:42;27.83;;;17.23;;
39102;SDS011;24847;48.218;16.414;2022-12-18T23:24:45;26.17;;;15.68;;
39102;SDS011;24847;48.218;16.414;2022-12-18T23:29:48;25.33;;;15.57;;
39102;SDS011;24847;48.218;16.414;2022-12-18T23:34:51;23.63;;;15.52;;
39102;SDS011;24847;48.218;16.414;2022-12-18T23:39:53;26.83;;;17.05;;
39102;SDS011;24847;48.218;16.414;2022-12-18T23:44:57;22.33;;;14.45;;
39102;SDS011;24847;48.218;16.414;2022-12-18T23:49:59;23.58;;;14.10;;
39102;SDS011;24847;48.218;16.414;2022-12-18T23:55:01;25.30;;;15.90;;
